Racecast

Ann Kraus

Unattached (TX) · 11 · FRONT RANGECO D5A5A · Compare head to head

Athlete rating 105.4 2018 XC season
Best race 113.3 XC
Races 44
Seasons 4 2017 — 2020

RankedNation #60163·CO #1524·CO D5A #950·FRONT RANGE #198·Team #34 ?

Speed rating — all races

Cross Country

XC speed rating

2018 XC 105.3

Fossil Ridge (CO) · Grade 10

Date Meet Event Result Place Rating Difficulty PR/SR Flags
2018-09-22 Viele Lake XC Course 5000m 24:31 46th · 7th on team 105.4 +0.042 ★CR SR CSR RSR
2018-08-31 Adams County Regional Park 5000m 24:58 76th · 15th on team 105.2 +0.048 ★CR SR CSR RSR

2017 XC 110.4

Fossil Ridge (CO) · Grade 9

Date Meet Event Result Place Rating Difficulty PR/SR Flags
2017-09-29 Margaret W. Carpenter Recreation Center 5000m 22:04 119th · 9th on team 113.3 +0.014 ★PR ★CR ★R SR CSR RSR
2017-09-08 Heritage High School 5000m 22:28 67th · 2nd on team 109.8 -0.001 PR ★CR R SR CSR RSR
2017-09-01 Colorado State University 5000m 23:38 48th · 9th on team 108.0 +0.027 PR ★CR R SR CSR RSR

Track & Field

TF speed rating

2020 TF

Unattached (TX) · Grade 11

Date Meet Event Result Place Rating Difficulty PR/SR Flags
2020-01-23 Colorado Mines HS Indoor Series #4 60mh 10.74 6th · 4th on team -0.012 ★PR SR
2020-01-23 Colorado Mines HS Indoor Series #4 60m 8.77 16th · 7th on team -0.012
2019-12-04 Colorado Mines Indoor Series #1 lj 14' 8.25 -0.012
2019-12-04 Colorado Mines Indoor Series #1 60m 8.7 39th · 7th on team -0.012 ★PR SR
2019-12-04 Colorado Mines Indoor Series #1 60mh 11.07 8th · 3rd on team -0.012 PR SR

2019 TF

Fossil Ridge (CO) · Grade 10

Date Meet Event Result Place Rating Difficulty PR/SR Flags
2019-05-03 Front Range League Championships 300mh 50.36 15th · 4th on team -0.011
2019-05-03 Front Range League Championships 300mh 49.7 14th · 3rd on team -0.011 ★PR SR
2019-05-03 Front Range League Championships 100mh 17.05 18th · 5th on team -0.011 ★PR SR
2019-04-26 No-Name Invitational 100mh 17.29 6th · 4th on team -0.007
2019-04-26 No-Name Invitational 300mh 50.32 3rd · 2nd on team -0.007
2019-04-18 Legend Prom Qualifier 300mh 50.19 6th · 2nd on team -0.003 PR SR
2019-04-18 Legend Prom Qualifier 100mh 17.61 10th · 2nd on team -0.003
2019-04-13 Pomona Invitational 300mh 50.65 8th · 1st on team -0.011 PR SR
2019-04-13 Pomona Invitational 100mh 17.89 13th · 3rd on team -0.011
2019-04-05 Thomas Jefferson Twilight 100mh 17.41 11th · 3rd on team -0.011
2019-04-05 Thomas Jefferson Twilight 300mh 52.9 15th · 3rd on team -0.011
2019-03-30 Altitude Running Invitational 100mh 17.21 8th · 2nd on team -0.012 SR
2019-03-30 Altitude Running Invitational 300mh 50.84 10th · 2nd on team -0.012 PR SR
2019-03-23 Broomfield Shootout 100mh 18.06 12th · 2nd on team -0.012
2019-03-16 NoCo Qualifier #1 300mh 53.83 9th · 2nd on team -0.015 SR
2019-03-16 NoCo Qualifier #1 100mh 18.8 17th · 3rd on team -0.015
2019-03-09 Ivory Moore "We Are Columbine" Invite 300mh 54.6 13th · 2nd on team -0.011 SR
2019-03-09 Ivory Moore "We Are Columbine" Invite 100mh 17.42 6th · 2nd on team -0.011 SR

2018 TF

Fossil Ridge (CO) · Grade 9

Date Meet Event Result Place Rating Difficulty PR/SR Flags
2018-05-05 Front Range League Championships 100mh 17.06 19th · 3rd on team -0.006 PR SR
2018-05-05 Front Range League Championships 300mh 51.61 21st · 3rd on team -0.006
2018-04-27 No Name Invitational 100mh 17.35 7th · 3rd on team -0.015
2018-04-27 No Name Invitational 300mh 51.5 6th · 3rd on team -0.015
2018-04-21 Poudre Invitational 300mh 50.94 1st · 1st on team -0.009 PR SR
2018-04-21 Poudre Invitational 100mh 17.4 3rd · 2nd on team -0.009
2018-04-19 Legend Spring Qualifier 300mh 54.04 12th · 2nd on team -0.003
2018-04-19 Legend Spring Qualifier 100mh 17.52 13th · 4th on team -0.003
2018-04-14 Pomona Invite 300mh 52.33 25th · 3rd on team -0.011
2018-04-14 Pomona Invite 100mh 17.34 18th · 2nd on team -0.011 PR SR
2018-04-10 Randi Yaussi Invitational lj 12-11.00 -0.012
2018-04-10 Randi Yaussi Invitational 100mh 17.42 7th · 3rd on team -0.012 PR SR
2018-04-10 Randi Yaussi Invitational 300mh 51.28 4th · 3rd on team -0.012 PR SR
2018-04-07 Legend Titan Track Clash 300mh 53.07 15th · 2nd on team -0.003 PR SR
2018-04-07 Legend Titan Track Clash 100mh 17.68 15th · 3rd on team -0.003 PR SR
2018-03-10 Columbine Invitational 100mh 18.74 13th · 2nd on team -0.011 PR SR